createdAt,value
2023-02-21T00:01:36.492Z,11.93
2023-02-21T00:04:44.647Z,10.70
2023-02-21T00:07:50.052Z,12.57
2023-02-21T00:10:55.764Z,9.32
2023-02-21T00:14:00.491Z,14.13
2023-02-21T00:17:05.708Z,13.48
2023-02-21T00:20:11.530Z,8.55
2023-02-21T00:23:16.761Z,9.05
2023-02-21T00:26:03.383Z,12.70
2023-02-21T00:29:08.091Z,14.00
2023-02-21T00:32:12.898Z,13.00
2023-02-21T00:34:59.121Z,12.98
2023-02-21T00:38:08.485Z,12.93
2023-02-21T00:41:13.758Z,13.73
2023-02-21T00:44:18.666Z,13.80
2023-02-21T00:47:23.475Z,14.20
2023-02-21T00:50:28.366Z,16.30
2023-02-21T00:53:34.232Z,13.88
2023-02-21T00:56:39.558Z,12.40
2023-02-21T00:59:43.968Z,12.90
2023-02-21T01:02:50.457Z,11.55
2023-02-21T01:05:55.152Z,15.77
2023-02-21T01:09:03.025Z,9.37
2023-02-21T01:12:08.351Z,16.95
2023-02-21T01:15:13.260Z,16.42
2023-02-21T01:18:17.764Z,17.77
2023-02-21T01:21:22.614Z,11.30
2023-02-21T01:24:32.286Z,14.57
2023-02-21T01:27:37.329Z,17.38
2023-02-21T01:30:42.503Z,15.05
2023-02-21T01:33:50.274Z,18.50
2023-02-21T01:36:54.724Z,14.00
2023-02-21T01:40:02.745Z,16.70
2023-02-21T01:43:07.370Z,18.70
2023-02-21T01:46:12.552Z,16.30
2023-02-21T01:49:18.899Z,17.45
2023-02-21T01:52:24.149Z,12.32
2023-02-21T01:55:30.480Z,15.95
2023-02-21T01:58:37.400Z,13.35
2023-02-21T02:01:49.852Z,9.10
2023-02-21T02:04:54.793Z,15.30
2023-02-21T02:07:59.307Z,15.85
2023-02-21T02:11:05.592Z,16.80
2023-02-21T02:14:17.413Z,11.07
2023-02-21T02:17:10.027Z,15.75
2023-02-21T02:20:33.675Z,9.55
2023-02-21T02:23:55.223Z,12.75
2023-02-21T02:27:02.278Z,15.50
2023-02-21T02:30:15.472Z,15.55
2023-02-21T02:33:50.131Z,17.35
2023-02-21T02:36:43.208Z,9.75
2023-02-21T02:39:36.792Z,14.32
2023-02-21T02:42:32.896Z,17.58
2023-02-21T02:45:24.562Z,16.30
2023-02-21T02:48:16.350Z,11.48
2023-02-21T02:51:05.370Z,10.02
2023-02-21T02:53:53.467Z,14.23
2023-02-21T02:56:40.756Z,15.43
2023-02-21T02:59:29.332Z,8.85
2023-02-21T03:02:43.760Z,8.05
2023-02-21T03:11:41.148Z,11.35
2023-02-21T03:14:34.474Z,9.02
2023-02-21T03:17:22.551Z,11.23
2023-02-21T03:20:11.524Z,13.00
2023-02-21T03:22:58.873Z,12.57
2023-02-21T03:25:48.211Z,12.77
2023-02-21T03:28:37.431Z,7.50
2023-02-21T03:31:27.823Z,14.68
2023-02-21T03:34:16.774Z,11.52
2023-02-21T03:37:05.500Z,10.57
2023-02-21T03:39:52.586Z,11.30
2023-02-21T03:42:41.729Z,13.55
2023-02-21T03:45:30.299Z,14.02
2023-02-21T03:48:26.126Z,8.32
2023-02-21T03:51:18.395Z,13.48
2023-02-21T03:54:06.153Z,11.20
2023-02-21T03:56:53.052Z,10.10
2023-02-21T03:59:39.950Z,14.27
2023-02-21T04:02:28.871Z,12.50
2023-02-21T04:08:21.020Z,13.63
2023-02-21T04:11:07.697Z,9.38
2023-02-21T04:13:54.879Z,9.98
2023-02-21T04:16:42.398Z,12.15
2023-02-21T04:19:33.134Z,11.02
2023-02-21T04:22:20.152Z,9.20
2023-02-21T04:25:09.971Z,13.82
2023-02-21T04:27:56.955Z,11.45
2023-02-21T04:30:43.786Z,10.15
2023-02-21T04:33:30.708Z,9.55
2023-02-21T04:36:19.104Z,10.55
2023-02-21T04:39:06.813Z,7.18
2023-02-21T04:41:54.988Z,11.88
2023-02-21T04:44:55.001Z,10.63
2023-02-21T04:47:46.622Z,7.13
2023-02-21T04:50:33.926Z,7.82
2023-02-21T04:53:22.344Z,10.70
2023-02-21T04:56:09.610Z,15.35
2023-02-21T04:58:56.860Z,11.02
2023-02-21T05:01:44.412Z,12.10
2023-02-21T05:04:31.722Z,11.70
2023-02-21T05:07:18.656Z,8.23
2023-02-21T05:10:08.250Z,10.10
2023-02-21T05:12:55.148Z,9.30
2023-02-21T05:15:42.043Z,8.02
2023-02-21T05:18:29.061Z,10.30
2023-02-21T05:20:58.466Z,10.85
2023-02-21T05:23:56.337Z,8.18
2023-02-21T05:26:44.879Z,6.70
2023-02-21T05:29:33.000Z,12.75
2023-02-21T05:32:23.072Z,11.15
2023-02-21T05:35:11.670Z,8.27
2023-02-21T05:37:59.255Z,14.32
2023-02-21T05:40:46.803Z,6.88
2023-02-21T05:43:35.243Z,13.27
2023-02-21T05:46:42.819Z,9.65
2023-02-21T05:49:30.357Z,11.73
2023-02-21T05:52:18.369Z,10.15
2023-02-21T05:55:06.007Z,11.27
2023-02-21T05:57:53.523Z,4.32
2023-02-21T06:00:41.900Z,12.25
2023-02-21T06:03:29.128Z,6.47
2023-02-21T06:06:17.520Z,8.07
2023-02-21T06:09:05.435Z,13.18
2023-02-21T06:11:52.578Z,11.40
2023-02-21T06:14:39.472Z,10.57
2023-02-21T06:20:34.581Z,11.88
2023-02-21T06:23:21.515Z,11.95
2023-02-21T06:26:11.159Z,9.63
2023-02-21T06:28:58.388Z,6.30
2023-02-21T06:31:48.328Z,11.32
2023-02-21T06:34:36.940Z,7.95
2023-02-21T06:37:42.960Z,9.25
2023-02-21T06:40:31.605Z,11.50
2023-02-21T06:43:18.745Z,11.65
2023-02-21T06:46:08.376Z,12.27
2023-02-21T06:48:55.290Z,12.82
2023-02-21T06:51:43.939Z,12.50
2023-02-21T06:54:31.362Z,6.78
2023-02-21T06:57:18.768Z,10.95
2023-02-21T07:00:06.676Z,12.13
2023-02-21T07:02:54.022Z,9.88
2023-02-21T07:05:41.234Z,10.00
2023-02-21T07:08:29.525Z,8.15
2023-02-21T07:11:17.208Z,5.70
2023-02-21T07:14:04.978Z,6.18
2023-02-21T07:16:54.810Z,12.52
2023-02-21T07:19:43.805Z,9.27
2023-02-21T07:22:31.987Z,9.77
2023-02-21T07:25:22.354Z,11.07
2023-02-21T07:28:12.021Z,8.65
2023-02-21T07:31:00.270Z,11.85
2023-02-21T07:33:47.430Z,7.82
2023-02-21T07:39:40.586Z,13.13
2023-02-21T07:42:30.129Z,12.93
2023-02-21T07:45:18.094Z,8.75
2023-02-21T07:48:05.737Z,9.38
2023-02-21T07:50:52.762Z,9.93
2023-02-21T07:53:22.166Z,9.75
2023-02-21T07:56:09.516Z,8.85
2023-02-21T07:58:57.871Z,6.38
2023-02-21T08:01:45.071Z,10.05
2023-02-21T08:04:14.002Z,11.88
2023-02-21T08:07:01.783Z,8.80
2023-02-21T08:09:49.197Z,8.23
2023-02-21T08:12:36.582Z,8.93
2023-02-21T08:15:24.891Z,8.40
2023-02-21T08:18:18.802Z,8.65
2023-02-21T08:21:06.077Z,7.95
2023-02-21T08:23:54.821Z,7.75
2023-02-21T08:26:45.653Z,11.10
2023-02-21T08:29:33.685Z,9.52
2023-02-21T08:32:22.375Z,9.18
2023-02-21T08:35:09.642Z,12.18
2023-02-21T08:37:56.967Z,11.40
2023-02-21T08:40:44.034Z,10.00
2023-02-21T08:43:30.927Z,7.32
2023-02-21T08:46:17.779Z,8.93
2023-02-21T08:49:06.369Z,9.45
2023-02-21T08:51:55.181Z,9.30
2023-02-21T08:54:48.065Z,9.50
2023-02-21T08:57:37.233Z,8.35
2023-02-21T09:00:28.749Z,10.65
2023-02-21T09:02:58.347Z,7.57
2023-02-21T09:05:47.330Z,10.23
2023-02-21T09:08:37.074Z,7.53
2023-02-21T09:11:24.409Z,9.73
2023-02-21T09:14:11.192Z,6.68
2023-02-21T09:16:58.349Z,5.90
2023-02-21T09:19:45.964Z,9.45
2023-02-21T09:22:35.502Z,6.93
2023-02-21T09:25:24.997Z,9.18
2023-02-21T09:28:12.417Z,9.63
2023-02-21T09:30:59.365Z,7.03
2023-02-21T09:33:46.924Z,9.75
2023-02-21T09:36:37.183Z,8.90
2023-02-21T09:39:25.581Z,11.20
2023-02-21T09:42:16.674Z,7.20
2023-02-21T09:45:04.781Z,9.60
2023-02-21T09:47:53.394Z,10.23
2023-02-21T09:50:46.074Z,10.43
2023-02-21T09:53:35.067Z,10.95
2023-02-21T09:56:30.484Z,7.30
2023-02-21T09:59:17.656Z,6.93
2023-02-21T10:02:20.664Z,7.18
2023-02-21T10:05:17.390Z,11.02
2023-02-21T10:07:50.761Z,9.55
2023-02-21T10:10:44.654Z,5.53
2023-02-21T10:13:39.819Z,9.68
2023-02-21T10:16:30.869Z,10.70
2023-02-21T10:19:20.157Z,8.50
2023-02-21T10:22:14.876Z,6.57
2023-02-21T10:25:02.243Z,6.17
2023-02-21T10:27:49.955Z,7.43
2023-02-21T10:30:41.222Z,10.13
2023-02-21T10:33:28.445Z,4.43
2023-02-21T10:36:18.573Z,7.60
2023-02-21T10:39:08.153Z,7.70
2023-02-21T10:41:56.754Z,8.93
2023-02-21T10:44:44.260Z,7.95
2023-02-21T10:47:40.874Z,6.97
2023-02-21T10:50:40.378Z,8.23
2023-02-21T10:53:33.858Z,6.03
2023-02-21T10:56:31.091Z,7.60
2023-02-21T10:59:23.336Z,8.75
2023-02-21T11:02:30.584Z,8.27
2023-02-21T11:05:22.392Z,8.63
2023-02-21T11:08:10.823Z,8.90
2023-02-21T11:10:57.939Z,8.65
2023-02-21T11:13:45.225Z,9.10
2023-02-21T11:16:35.251Z,7.70
2023-02-21T11:19:22.307Z,7.75
2023-02-21T11:22:11.105Z,9.23
2023-02-21T11:25:06.454Z,8.25
2023-02-21T11:28:20.003Z,9.88
2023-02-21T11:31:13.402Z,8.25
2023-02-21T11:34:02.372Z,6.95
2023-02-21T11:36:50.822Z,7.03
2023-02-21T11:39:40.220Z,9.50
2023-02-21T11:42:29.269Z,9.13
2023-02-21T11:45:23.202Z,8.30
2023-02-21T11:48:15.271Z,7.68
2023-02-21T11:51:07.567Z,6.60
2023-02-21T11:53:41.401Z,8.43
2023-02-21T11:56:37.290Z,8.50
2023-02-21T11:59:36.073Z,7.65
2023-02-21T12:03:10.691Z,8.15
2023-02-21T12:06:01.800Z,8.75
2023-02-21T12:08:53.140Z,6.63
2023-02-21T12:11:49.174Z,5.68
2023-02-21T12:15:02.600Z,8.82
2023-02-21T12:18:14.148Z,8.35
2023-02-21T12:21:28.145Z,8.38
2023-02-21T12:24:32.444Z,6.82
2023-02-21T12:27:26.923Z,7.63
2023-02-21T12:30:27.297Z,6.05
2023-02-21T12:33:26.035Z,6.97
2023-02-21T12:36:40.934Z,8.27
2023-02-21T12:39:40.010Z,5.68
2023-02-21T12:43:11.603Z,10.55
2023-02-21T12:46:04.902Z,5.45
2023-02-21T12:48:57.251Z,8.43
2023-02-21T12:51:47.607Z,7.68
2023-02-21T12:54:41.298Z,6.25
2023-02-21T12:57:37.058Z,7.22
2023-02-21T13:00:26.688Z,5.95
2023-02-21T13:03:26.806Z,7.88
2023-02-21T13:06:21.179Z,7.22
2023-02-21T13:09:14.535Z,5.65
2023-02-21T13:12:07.066Z,7.43
2023-02-21T13:14:57.405Z,9.70
2023-02-21T13:17:46.216Z,7.07
2023-02-21T13:20:37.680Z,7.30
2023-02-21T13:24:05.670Z,5.50
2023-02-21T13:27:03.676Z,5.55
2023-02-21T13:29:51.207Z,7.13
2023-02-21T13:32:39.713Z,6.53
2023-02-21T13:35:31.807Z,5.95
2023-02-21T13:38:21.271Z,7.70
2023-02-21T13:41:11.202Z,4.80
2023-02-21T13:44:02.275Z,8.27
2023-02-21T13:47:06.304Z,5.45
2023-02-21T13:49:55.957Z,8.43
2023-02-21T13:53:04.590Z,6.68
2023-02-21T13:56:15.596Z,5.40
2023-02-21T13:59:33.653Z,6.15
2023-02-21T14:02:31.453Z,5.35
2023-02-21T14:08:25.440Z,6.22
2023-02-21T14:11:18.032Z,7.97
2023-02-21T14:14:06.897Z,6.22
2023-02-21T14:17:00.406Z,7.07
2023-02-21T14:19:50.522Z,7.07
2023-02-21T14:22:38.356Z,6.65
2023-02-21T14:25:27.924Z,6.43
2023-02-21T14:28:47.967Z,7.13
2023-02-21T14:31:50.819Z,6.40
2023-02-21T14:34:41.015Z,6.40
2023-02-21T14:37:35.201Z,6.65
2023-02-21T14:40:32.916Z,8.25
2023-02-21T14:43:39.639Z,5.63
2023-02-21T14:46:55.518Z,6.25
2023-02-21T14:49:54.328Z,7.60
2023-02-21T14:53:16.863Z,6.43
2023-02-21T14:56:31.118Z,8.57
2023-02-21T14:59:42.034Z,5.97
2023-02-21T15:02:35.352Z,7.20
2023-02-21T15:05:25.312Z,6.75
2023-02-21T15:08:16.258Z,8.07
2023-02-21T15:11:05.925Z,5.57
2023-02-21T15:14:22.999Z,5.53
2023-02-21T15:17:15.676Z,6.97
2023-02-21T15:20:09.535Z,7.25
2023-02-21T15:23:02.203Z,6.13
2023-02-21T15:25:55.844Z,6.65
2023-02-21T15:28:43.210Z,7.70
2023-02-21T15:31:30.529Z,7.30
2023-02-21T15:34:19.650Z,8.18
2023-02-21T15:37:16.620Z,4.78
2023-02-21T15:40:12.067Z,6.50
2023-02-21T15:43:00.329Z,11.45
2023-02-21T15:45:51.360Z,7.55
2023-02-21T15:48:38.370Z,9.38
2023-02-21T15:51:44.275Z,6.03
2023-02-21T15:54:33.998Z,6.15
2023-02-21T15:57:24.967Z,7.72
2023-02-21T16:00:21.240Z,7.75
2023-02-21T16:03:28.492Z,9.55
2023-02-21T16:06:25.256Z,5.93
2023-02-21T16:09:24.647Z,7.35
2023-02-21T16:12:29.373Z,7.70
2023-02-21T16:15:25.051Z,7.90
2023-02-21T16:18:19.293Z,9.48
2023-02-21T16:21:07.983Z,7.80
2023-02-21T16:23:56.152Z,6.10
2023-02-21T16:27:00.627Z,8.38
2023-02-21T16:29:49.037Z,7.68
2023-02-21T16:32:36.603Z,8.98
2023-02-21T16:35:25.584Z,5.28
2023-02-21T16:38:15.944Z,11.25
2023-02-21T16:40:45.785Z,7.43
2023-02-21T16:43:32.910Z,8.13
2023-02-21T16:46:28.406Z,8.65
2023-02-21T16:49:16.861Z,7.50
2023-02-21T16:52:04.105Z,7.43
2023-02-21T16:54:51.314Z,6.22
2023-02-21T16:57:40.536Z,7.57
2023-02-21T17:00:28.422Z,8.65
2023-02-21T17:03:17.576Z,8.88
2023-02-21T17:06:04.527Z,6.97
2023-02-21T17:08:52.820Z,5.68
2023-02-21T17:11:43.164Z,8.38
2023-02-21T17:14:30.267Z,6.38
2023-02-21T17:17:19.073Z,6.88
2023-02-21T17:20:09.605Z,6.90
2023-02-21T17:22:58.542Z,8.52
2023-02-21T17:25:46.089Z,8.95
2023-02-21T17:28:50.576Z,8.73
2023-02-21T17:31:38.447Z,9.30
2023-02-21T17:34:25.334Z,9.20
2023-02-21T17:37:14.056Z,8.20
2023-02-21T17:40:00.929Z,8.82
2023-02-21T17:42:48.270Z,8.25
2023-02-21T17:45:36.490Z,7.78
2023-02-21T17:48:23.870Z,7.78
2023-02-21T17:51:11.804Z,10.02
2023-02-21T17:54:00.449Z,7.18
2023-02-21T17:56:47.813Z,8.60
2023-02-21T17:59:35.459Z,7.00
2023-02-21T18:02:22.499Z,5.55
2023-02-21T18:05:09.944Z,6.70
2023-02-21T18:08:00.113Z,7.82
2023-02-21T18:10:48.950Z,6.97
2023-02-21T18:13:36.316Z,7.00
2023-02-21T18:16:25.596Z,7.90
2023-02-21T18:19:12.676Z,6.07
2023-02-21T18:21:59.619Z,6.88
2023-02-21T18:24:48.845Z,7.88
2023-02-21T18:27:37.808Z,6.70
2023-02-21T18:30:25.246Z,7.28
2023-02-21T18:33:12.161Z,6.18
2023-02-21T18:36:00.222Z,7.78
2023-02-21T18:38:48.314Z,7.43
2023-02-21T18:41:35.792Z,6.43
2023-02-21T18:44:24.815Z,5.78
2023-02-21T18:47:16.962Z,9.18
2023-02-21T18:50:04.039Z,7.50
2023-02-21T18:52:51.052Z,7.53
2023-02-21T18:55:38.241Z,6.82
2023-02-21T18:58:25.554Z,7.78
2023-02-21T19:01:15.419Z,5.65
2023-02-21T19:04:03.820Z,6.32
2023-02-21T19:06:50.941Z,5.82
2023-02-21T19:09:44.462Z,7.30
2023-02-21T19:12:31.674Z,5.07
2023-02-21T19:15:19.371Z,8.93
2023-02-21T19:18:07.774Z,8.63
2023-02-21T19:20:54.707Z,9.30
2023-02-21T19:23:43.911Z,7.03
2023-02-21T19:26:31.871Z,6.60
2023-02-21T19:29:21.256Z,6.78
2023-02-21T19:32:08.682Z,6.85
2023-02-21T19:34:57.649Z,6.13
2023-02-21T19:37:45.337Z,8.35
2023-02-21T19:40:32.843Z,7.72
2023-02-21T19:43:19.943Z,7.22
2023-02-21T19:46:07.279Z,6.38
2023-02-21T19:48:54.673Z,8.13
2023-02-21T19:51:42.994Z,9.10
2023-02-21T19:54:31.134Z,7.53
2023-02-21T19:57:18.404Z,5.68
2023-02-21T20:00:08.948Z,10.77
2023-02-21T20:02:56.270Z,6.13
2023-02-21T20:05:43.897Z,7.28
2023-02-21T20:08:32.240Z,6.10
2023-02-21T20:11:21.409Z,8.50
2023-02-21T20:14:09.157Z,7.28
2023-02-21T20:16:56.136Z,7.40
2023-02-21T20:19:43.688Z,7.80
2023-02-21T20:22:36.867Z,7.93
2023-02-21T20:25:26.230Z,8.15
2023-02-21T20:28:13.460Z,7.35
2023-02-21T20:31:00.785Z,10.15
2023-02-21T20:33:48.265Z,7.05
2023-02-21T20:36:40.280Z,7.85
2023-02-21T20:39:29.215Z,6.25
2023-02-21T20:42:18.485Z,9.52
2023-02-21T20:45:05.804Z,9.43
2023-02-21T20:47:52.956Z,8.18
2023-02-21T20:50:41.847Z,10.05
2023-02-21T20:53:29.829Z,6.53
2023-02-21T20:56:16.793Z,7.00
2023-02-21T20:59:06.058Z,8.55
2023-02-21T21:01:53.558Z,7.65
2023-02-21T21:04:43.123Z,8.90
2023-02-21T21:07:34.862Z,9.57
2023-02-21T21:10:22.038Z,7.32
2023-02-21T21:13:08.934Z,9.75
2023-02-21T21:15:57.609Z,6.63
2023-02-21T21:18:47.105Z,9.02
2023-02-21T21:21:34.617Z,5.65
2023-02-21T21:24:22.353Z,7.43
2023-02-21T21:27:11.114Z,6.22
2023-02-21T21:29:58.598Z,7.55
2023-02-21T21:32:47.499Z,6.97
2023-02-21T21:35:37.650Z,9.00
2023-02-21T21:38:26.675Z,8.43
2023-02-21T21:41:16.126Z,9.85
2023-02-21T21:44:23.345Z,6.85
2023-02-21T21:47:10.722Z,7.10
2023-02-21T21:49:59.649Z,7.10
2023-02-21T21:52:50.766Z,8.90
2023-02-21T21:55:38.945Z,7.78
2023-02-21T21:58:26.825Z,6.60
2023-02-21T22:01:15.615Z,6.85
2023-02-21T22:04:02.799Z,7.63
2023-02-21T22:06:51.328Z,6.32
2023-02-21T22:21:44.371Z,4.97
2023-02-21T22:24:36.127Z,6.97
2023-02-21T22:27:23.054Z,6.25
2023-02-21T22:30:13.865Z,5.28
2023-02-21T22:32:43.336Z,5.57
2023-02-21T22:35:30.874Z,7.93
2023-02-21T22:38:18.012Z,6.03
2023-02-21T22:41:07.363Z,6.65
2023-02-21T22:43:56.037Z,5.10
2023-02-21T22:46:44.587Z,3.78
2023-02-21T22:49:31.894Z,8.23
2023-02-21T22:52:19.243Z,6.95
2023-02-21T22:55:09.997Z,5.10
2023-02-21T22:57:59.755Z,7.80
2023-02-21T23:00:47.016Z,7.22
2023-02-21T23:03:34.118Z,4.85
2023-02-21T23:06:21.268Z,4.63
2023-02-21T23:09:13.420Z,5.97
2023-02-21T23:12:01.711Z,6.53
2023-02-21T23:14:52.223Z,5.80
2023-02-21T23:17:39.382Z,6.53
2023-02-21T23:20:29.819Z,10.55
2023-02-21T23:23:17.104Z,5.95
2023-02-21T23:26:08.786Z,8.93
2023-02-21T23:28:55.675Z,7.88
2023-02-21T23:34:13.217Z,6.70
2023-02-21T23:37:19.278Z,7.95
2023-02-21T23:40:28.155Z,6.75
2023-02-21T23:43:16.929Z,6.70
2023-02-21T23:46:06.758Z,7.57
2023-02-21T23:48:55.114Z,6.78
2023-02-21T23:51:43.604Z,4.57
2023-02-21T23:54:31.073Z,10.30
2023-02-21T23:57:17.774Z,7.20
